FAUP

Pierre Van Ryneveld Airport

Upington, South Africa
METAR FAUP 191100Z 24004KT CAVOK 27/03 Q1015 NOSIG
Observed Flight Rules
Dec-19 @ 11:00 UTC (an hour ago) Visual Flight Rules
Wind Visibility Clouds
240° at 4 knots 10,000+ meters
  • Clear skies
Temperatures Readings
Current 27°C / 81°F
Dewpoint 3°C / 37°F
Humidity 21%
Altimeter 29.97" Hg
Pressure 1015 hPa
Elevation 836
METAR FAUP 191100Z 24004KT CAVOK 27/03 Q1015 NOSIG
Observed Flight Rules
Dec-19 @ 11:00 UTC
(an hour ago)
VFR
Wind Visibility
240° at 4 knots 10,000+ meters
Clouds
  • Clear skies
Temperature Dewpoint
27°C / 81°F 3°C / 37°F
Humidity Altimeter Pressure
21% 29.97" Hg 1015 hPa